Time;durP1;ratioP1;P1;durP2;ratioP2;P2;SDS_P1;SDS_P2;PMS_P1;PMS_P2;Temp;Humidity;BMP_temperature;BMP_pressure;BME280_temperature;BME280_humidity;BME280_pressure;Samples;Min_cycle;Max_cycle;Signal;HPM_P1;HPM_P2
2024/04/04 00:02:14;;;;;;;3.17;0.70;;;;;;;17.24;58.20;100453.16;10454458;28;20443;-60
2024/04/04 00:07:15;;;;;;;5.90;1.40;;;;;;;17.25;57.25;100460.13;10436664;28;20433;-60
2024/04/04 00:12:15;;;;;;;2.40;0.73;;;;;;;17.29;57.98;100468.38;10450386;28;20772;-60
2024/04/04 00:17:15;;;;;;;1.67;0.80;;;;;;;17.28;57.78;100462.19;10413249;28;20552;-60
2024/04/04 00:22:16;;;;;;;2.50;1.00;;;;;;;17.29;57.07;100450.41;10394839;28;20031;-59
2024/04/04 00:27:16;;;;;;;1.77;0.60;;;;;;;17.30;57.50;100453.91;10412889;28;20080;-59
2024/04/04 00:32:16;;;;;;;4.88;1.05;;;;;;;17.30;58.04;100437.81;10398026;28;20088;-59
2024/04/04 00:37:17;;;;;;;1.98;1.38;;;;;;;17.28;57.02;100430.03;10371304;28;20108;-59
2024/04/04 00:42:18;;;;;;;2.35;0.88;;;;;;;17.27;58.13;100433.03;10370641;28;20030;-60
2024/04/04 00:47:18;;;;;;;4.25;1.08;;;;;;;17.29;58.08;100422.84;10370970;28;20022;-60
2024/04/04 00:52:19;;;;;;;2.28;0.77;;;;;;;17.28;58.18;100424.69;10370721;28;20030;-59
2024/04/04 00:57:20;;;;;;;1.23;0.68;;;;;;;17.28;56.81;100419.31;10378529;28;20033;-59
2024/04/04 01:02:21;;;;;;;3.30;0.88;;;;;;;17.29;57.17;100425.50;10411589;28;20025;-60
2024/04/04 01:07:22;;;;;;;2.58;0.80;;;;;;;17.27;57.17;100414.25;10392238;28;20026;-59
2024/04/04 01:12:22;;;;;;;3.78;0.95;;;;;;;17.28;58.17;100407.81;10387170;28;20445;-60
2024/04/04 01:17:24;;;;;;;2.13;0.73;;;;;;;17.28;57.25;100397.09;10369636;28;20031;-60
2024/04/04 01:22:24;;;;;;;3.38;0.70;;;;;;;17.29;56.46;100404.06;10369759;28;20028;-60
2024/04/04 01:27:25;;;;;;;2.95;0.80;;;;;;;17.28;57.32;100391.75;10369080;28;20623;-59
2024/04/04 01:32:25;;;;;;;4.63;0.80;;;;;;;17.30;57.27;100395.72;10369661;28;20038;-59
2024/04/04 01:37:26;;;;;;;2.60;0.77;;;;;;;17.29;57.10;100396.81;10368714;28;20676;-59
2024/04/04 01:42:26;;;;;;;2.58;0.80;;;;;;;17.29;56.85;100388.78;10351483;28;20269;-60
2024/04/04 01:47:26;;;;;;;3.35;0.73;;;;;;;17.27;56.57;100382.91;10368476;28;20049;-60
2024/04/04 01:52:27;;;;;;;1.47;0.60;;;;;;;17.30;56.99;100374.31;10368701;28;20026;-59
2024/04/04 01:57:27;;;;;;;2.43;0.60;;;;;;;17.30;57.57;100366.25;10368594;28;20371;-59
2024/04/04 02:02:27;;;;;;;2.15;0.80;;;;;;;17.29;57.59;100351.28;10368702;28;20815;-59
2024/04/04 02:07:28;;;;;;;2.97;0.80;;;;;;;17.29;57.52;100342.44;10367906;28;20528;-59
2024/04/04 02:12:29;;;;;;;6.38;1.80;;;;;;;17.28;56.34;100346.19;10372498;28;20342;-59
2024/04/04 02:17:29;;;;;;;2.85;0.80;;;;;;;17.29;57.32;100332.50;10390107;28;20033;-59
2024/04/04 02:22:29;;;;;;;3.33;0.80;;;;;;;17.29;57.49;100323.69;10408956;28;20030;-60
2024/04/04 02:27:31;;;;;;;2.53;0.80;;;;;;;17.27;57.90;100315.13;10408396;28;20041;-60
2024/04/04 02:32:32;;;;;;;4.90;0.70;;;;;;;17.25;57.35;100304.69;10392560;28;20295;-59
2024/04/04 02:37:32;;;;;;;4.70;1.20;;;;;;;17.25;57.46;100300.13;10367151;28;20029;-60
2024/04/04 02:42:34;;;;;;;2.40;0.80;;;;;;;17.29;56.64;100291.53;10367444;28;20276;-60
2024/04/04 02:47:34;;;;;;;3.05;1.00;;;;;;;17.30;57.50;100282.41;10349784;28;20272;-60
2024/04/04 02:52:34;;;;;;;2.33;0.57;;;;;;;17.30;56.75;100277.03;10367558;28;20458;-60
2024/04/04 02:57:38;;;;;;;1.95;0.90;;;;;;;17.31;56.84;100262.53;10367027;28;20276;-60
2024/04/04 03:02:38;;;;;;;2.25;1.00;;;;;;;17.26;56.82;100250.03;10369984;28;20064;-59
2024/04/04 03:07:38;;;;;;;2.57;0.97;;;;;;;17.29;56.67;100237.94;10377200;28;20077;-59
2024/04/04 03:12:39;;;;;;;2.03;0.63;;;;;;;17.27;56.93;100230.16;10366497;28;20375;-59
2024/04/04 03:17:39;;;;;;;1.83;0.60;;;;;;;17.27;57.59;100222.13;10366310;28;20284;-60
2024/04/04 03:22:39;;;;;;;4.87;0.90;;;;;;;17.24;57.85;100215.50;10366840;28;20060;-59
2024/04/04 03:27:40;;;;;;;2.77;1.00;;;;;;;17.24;57.75;100212.03;10366373;28;20280;-60
2024/04/04 03:32:41;;;;;;;1.63;0.80;;;;;;;17.28;56.33;100199.59;10372298;28;20286;-60
2024/04/04 03:37:41;;;;;;;2.40;0.80;;;;;;;17.30;57.50;100183.25;10368712;28;20046;-59
2024/04/04 03:42:42;;;;;;;4.07;1.17;;;;;;;17.29;57.37;100179.78;10373534;28;20029;-59
2024/04/04 03:47:42;;;;;;;2.15;0.70;;;;;;;17.29;56.46;100187.81;10372985;28;20393;-60
2024/04/04 03:52:42;;;;;;;3.43;1.17;;;;;;;17.27;57.34;100171.22;10372921;28;20014;-59
2024/04/04 03:57:43;;;;;;;1.43;0.70;;;;;;;17.27;57.66;100154.34;10372593;28;20285;-60
2024/04/04 04:02:43;;;;;;;1.83;0.60;;;;;;;17.28;56.68;100146.03;10372750;28;20486;-60
2024/04/04 04:07:43;;;;;;;2.75;0.82;;;;;;;17.27;56.24;100136.41;10372194;28;20754;-59
2024/04/04 04:12:44;;;;;;;3.13;0.97;;;;;;;17.25;57.86;100130.56;10381800;28;20049;-59
2024/04/04 04:17:45;;;;;;;1.80;0.50;;;;;;;17.29;57.15;100128.88;10435691;28;20310;-60
2024/04/04 04:22:45;;;;;;;4.20;1.05;;;;;;;17.28;56.64;100124.59;10454222;28;20079;-60
2024/04/04 04:27:45;;;;;;;2.80;1.33;;;;;;;17.28;57.71;100126.47;10453564;28;20094;-59
2024/04/04 04:32:46;;;;;;;1.70;0.60;;;;;;;17.28;56.97;100119.22;10453049;28;20295;-60
2024/04/04 04:37:46;;;;;;;2.83;0.70;;;;;;;17.31;56.26;100107.94;10435518;28;20310;-60
2024/04/04 04:42:46;;;;;;;2.13;0.53;;;;;;;17.29;57.37;100102.06;10452792;28;20272;-60
2024/04/04 04:47:47;;;;;;;1.90;0.50;;;;;;;17.27;57.53;100098.88;10452321;28;20283;-60
2024/04/04 04:52:47;;;;;;;2.73;0.70;;;;;;;17.29;56.32;100095.94;10452845;28;20294;-60
2024/04/04 04:57:48;;;;;;;1.50;0.60;;;;;;;17.30;57.37;100087.59;10451297;28;20276;-61
2024/04/04 05:02:51;;;;;;;1.73;0.50;;;;;;;17.27;57.53;100074.78;10452524;28;20278;-61
2024/04/04 05:07:52;;;;;;;10.27;1.25;;;;;;;17.51;57.91;100072.59;10452059;28;20104;-63
2024/04/04 05:12:52;;;;;;;4.10;1.00;;;;;;;17.64;58.28;100062.94;10434098;28;20048;-60
2024/04/04 05:17:52;;;;;;;6.47;1.10;;;;;;;17.69;57.44;100054.00;10452052;28;20028;-60
2024/04/04 05:22:53;;;;;;;4.90;1.37;;;;;;;17.66;58.44;100041.19;10450445;28;20021;-59
2024/04/04 05:27:53;;;;;;;6.60;1.10;;;;;;;17.53;58.15;100034.81;10447445;28;20278;-59
2024/04/04 05:32:53;;;;;;;7.30;1.47;;;;;;;17.56;58.28;100044.13;10429920;28;20793;-63
2024/04/04 05:37:55;;;;;;;6.15;1.10;;;;;;;17.52;57.82;100030.50;10431955;28;20294;-61
2024/04/04 05:42:55;;;;;;;10.45;1.77;;;;;;;17.40;58.88;100020.34;10437925;28;20677;-61
2024/04/04 05:47:55;;;;;;;8.17;1.80;;;;;;;17.37;58.84;100020.94;10438457;28;20023;-61
2024/04/04 05:52:56;;;;;;;8.30;2.00;;;;;;;17.36;58.41;100022.06;10449994;28;20293;-62
2024/04/04 05:57:56;;;;;;;22.60;3.10;;;;;;;17.32;59.73;100004.22;10431935;28;20081;-61
2024/04/04 06:02:56;;;;;;;13.52;2.28;;;;;;;17.35;59.31;100004.38;10432347;28;20302;-61
2024/04/04 06:07:57;;;;;;;7.50;2.13;;;;;;;17.29;59.53;100010.97;10449280;28;20042;-62
2024/04/04 06:12:57;;;;;;;9.53;2.30;;;;;;;17.26;59.35;99984.78;10448896;28;20295;-62
2024/04/04 06:17:57;;;;;;;13.83;2.70;;;;;;;17.24;58.81;99995.78;10449000;28;20746;-62
2024/04/04 06:22:57;;;;;;;7.73;2.20;;;;;;;17.21;59.29;99966.16;10431684;28;20270;-62
2024/04/04 06:27:58;;;;;;;6.80;1.50;;;;;;;17.18;58.89;99989.00;10448948;28;20750;-62
2024/04/04 06:32:58;;;;;;;7.47;1.80;;;;;;;17.16;59.67;99969.72;10448711;28;20299;-63
2024/04/04 06:37:58;;;;;;;8.90;2.33;;;;;;;17.16;59.75;99961.69;10430443;28;20743;-63
2024/04/04 06:42:59;;;;;;;5.50;1.67;;;;;;;17.16;59.28;99972.41;10448776;28;20295;-63
2024/04/04 06:48:00;;;;;;;7.13;2.17;;;;;;;17.19;59.00;99960.31;10430551;28;20703;-62
2024/04/04 06:53:02;;;;;;;9.90;3.47;;;;;;;17.17;58.55;99968.66;10448477;28;20333;-62
2024/04/04 06:58:03;;;;;;;11.88;2.03;;;;;;;17.17;59.48;99973.22;10430041;28;20024;-63
2024/04/04 07:03:03;;;;;;;4.18;1.30;;;;;;;17.23;58.91;99972.78;10448413;28;20032;-63
2024/04/04 07:08:06;;;;;;;6.30;2.42;;;;;;;17.23;59.25;99983.50;10455837;28;20029;-62
2024/04/04 07:13:06;;;;;;;5.88;1.58;;;;;;;17.23;59.12;99986.19;10437792;28;20053;-62
2024/04/04 07:18:12;;;;;;;5.47;1.50;;;;;;;17.21;58.27;99984.91;10455635;28;20041;-62
2024/04/04 07:23:12;;;;;;;11.48;2.40;;;;;;;17.25;59.01;99988.56;10421937;28;20071;-63
2024/04/04 07:28:13;;;;;;;5.33;1.30;;;;;;;17.28;58.60;99987.94;10437215;28;20067;-62
2024/04/04 07:33:13;;;;;;;6.35;1.35;;;;;;;17.30;58.95;99993.00;10437348;28;20333;-62
2024/04/04 07:38:14;;;;;;;3.42;0.98;;;;;;;17.28;59.11;100001.31;10436724;28;20492;-62
2024/04/04 07:43:14;;;;;;;3.83;1.03;;;;;;;17.26;58.23;99976.72;10455117;28;20503;-62
2024/04/04 07:48:17;;;;;;;4.70;1.20;;;;;;;17.24;58.34;99986.97;10454293;28;20310;-62
2024/04/04 07:53:17;;;;;;;3.40;1.20;;;;;;;17.27;59.41;99986.34;10436880;28;20025;-62
2024/04/04 07:58:17;;;;;;;2.93;0.87;;;;;;;17.25;59.15;100000.06;10436008;28;20048;-62
2024/04/04 08:03:18;;;;;;;5.83;1.10;;;;;;;17.27;58.45;99985.56;10454034;28;20306;-62
2024/04/04 08:08:18;;;;;;;5.65;0.90;;;;;;;17.28;59.81;99993.28;10435796;28;20275;-62
2024/04/04 08:13:19;;;;;;;4.27;1.03;;;;;;;17.28;59.20;100000.53;10453426;28;20049;-62
2024/04/04 08:18:20;;;;;;;6.68;1.38;;;;;;;17.28;59.33;100003.22;10452663;28;20275;-62
2024/04/04 08:23:20;;;;;;;3.83;0.93;;;;;;;17.24;58.52;100014.56;10436027;28;20024;-62
2024/04/04 08:28:22;;;;;;;3.42;1.10;;;;;;;17.23;59.53;100014.84;10434590;28;20031;-62
2024/04/04 08:33:24;;;;;;;5.80;0.80;;;;;;;17.21;59.17;100014.38;10435277;28;20072;-63
2024/04/04 08:38:24;;;;;;;3.17;0.98;;;;;;;17.20;58.49;100018.94;10434364;28;20031;-62
2024/04/04 08:43:27;;;;;;;1.90;0.70;;;;;;;17.18;59.38;100028.38;10434958;28;20045;-62
2024/04/04 08:48:27;;;;;;;3.78;0.63;;;;;;;17.19;59.73;100027.28;10451849;28;20272;-63
2024/04/04 08:53:27;;;;;;;5.10;1.33;;;;;;;17.18;58.22;100021.13;10434186;28;20227;-62
2024/04/04 08:58:28;;;;;;;4.27;1.03;;;;;;;17.18;59.46;100039.09;10434444;28;20029;-62
2024/04/04 09:03:29;;;;;;;1.55;0.60;;;;;;;17.18;58.18;100047.13;10434166;28;20275;-62
2024/04/04 09:08:30;;;;;;;3.67;0.70;;;;;;;17.20;58.60;100047.63;10433355;28;20032;-62
2024/04/04 09:13:30;;;;;;;2.25;0.60;;;;;;;17.18;59.24;100053.28;10450891;28;20071;-62
2024/04/04 09:18:30;;;;;;;2.77;0.90;;;;;;;17.18;58.31;100065.88;10433305;28;20025;-63
2024/04/04 09:23:31;;;;;;;2.57;0.80;;;;;;;17.16;59.55;100070.72;10433092;28;20333;-62
2024/04/04 09:28:32;;;;;;;2.25;0.93;;;;;;;17.21;58.26;100063.38;10415111;28;20372;-62
2024/04/04 09:33:32;;;;;;;1.75;0.82;;;;;;;17.21;58.82;100054.56;10450234;28;20364;-62
2024/04/04 09:38:33;;;;;;;3.63;0.70;;;;;;;17.19;59.44;100051.41;10432815;28;20115;-62
2024/04/04 09:43:33;;;;;;;1.42;0.70;;;;;;;17.20;59.59;100063.69;10432038;28;20037;-62
2024/04/04 09:48:33;;;;;;;3.03;0.83;;;;;;;17.19;59.61;100068.25;10432243;28;20027;-63
2024/04/04 09:53:36;;;;;;;3.67;1.00;;;;;;;17.19;60.17;100068.25;10449339;28;20674;-62
2024/04/04 09:58:37;;;;;;;2.92;1.20;;;;;;;17.22;59.02;100085.63;10431482;28;20278;-62
2024/04/04 10:03:38;;;;;;;2.28;0.65;;;;;;;17.21;59.27;100098.22;10448501;28;20074;-62
2024/04/04 10:08:39;;;;;;;2.42;0.60;;;;;;;17.17;60.15;100102.59;10449379;28;20106;-62
2024/04/04 10:13:48;;;;;;;1.92;0.70;;;;;;;17.17;60.31;100105.28;10449120;28;20492;-62
2024/04/04 10:18:48;;;;;;;6.07;1.08;;;;;;;17.15;58.86;100104.75;10448680;28;20170;-61
2024/04/04 10:23:52;;;;;;;1.67;0.87;;;;;;;17.12;58.90;100112.63;10449464;28;20377;-59
2024/04/04 10:28:52;;;;;;;1.95;0.63;;;;;;;17.19;58.93;100135.22;10449421;28;20291;-60
2024/04/04 10:34:03;;;;;;;2.17;0.70;;;;;;;17.24;58.83;100121.72;10448855;28;20025;-62
2024/04/04 10:39:09;;;;;;;2.92;0.80;;;;;;;17.28;59.86;100123.78;10451134;28;20009;-61
2024/04/04 10:44:13;;;;;;;1.83;0.55;;;;;;;17.28;60.17;100118.44;10453767;28;20164;-61
2024/04/04 10:49:14;;;;;;;2.80;0.90;;;;;;;17.20;59.60;100114.59;10452064;28;20025;-61
2024/04/04 10:54:16;;;;;;;1.85;0.60;;;;;;;17.20;60.26;100117.28;10452337;28;20495;-61
2024/04/04 10:59:18;;;;;;;4.72;0.90;;;;;;;17.20;59.71;100115.38;10439211;28;20036;-60
2024/04/04 11:04:19;;;;;;;5.07;0.70;;;;;;;17.20;60.47;100118.06;10449009;28;20486;-60
2024/04/04 11:09:22;;;;;;;3.42;0.93;;;;;;;17.19;60.37;100129.88;10457339;28;20132;-60
2024/04/04 11:14:24;;;;;;;2.78;1.08;;;;;;;17.15;61.04;100122.72;10438762;28;20127;-62
2024/04/04 11:19:24;;;;;;;3.15;0.90;;;;;;;17.16;60.32;100145.72;10456447;28;20029;-60
2024/04/04 11:24:28;;;;;;;2.57;0.70;;;;;;;17.15;59.23;100138.78;10456113;28;20032;-60
2024/04/04 11:29:29;;;;;;;2.15;0.60;;;;;;;17.15;59.71;100155.66;10454422;28;20290;-60
2024/04/04 11:34:29;;;;;;;2.37;0.83;;;;;;;17.14;59.95;100147.94;10454835;28;20094;-60
2024/04/04 11:39:29;;;;;;;1.42;0.90;;;;;;;17.16;60.57;100153.78;10456027;28;20271;-61
2024/04/04 11:44:30;;;;;;;3.03;0.70;;;;;;;17.19;60.09;100156.66;10441428;28;20032;-62
2024/04/04 11:49:30;;;;;;;2.17;0.67;;;;;;;17.20;59.58;100187.72;10439908;28;20290;-61
2024/04/04 11:54:30;;;;;;;2.40;0.60;;;;;;;17.17;60.44;100182.97;10454867;28;20291;-61
2024/04/04 11:59:31;;;;;;;1.58;0.68;;;;;;;17.17;59.68;100188.31;10451918;28;20611;-61
2024/04/04 12:04:41;;;;;;;1.70;0.70;;;;;;;17.20;60.05;100203.78;10443987;28;20120;-60
2024/04/04 12:09:41;;;;;;;2.30;0.70;;;;;;;17.21;59.23;100209.94;10450023;28;20295;-61
2024/04/04 12:14:43;;;;;;;3.17;0.90;;;;;;;17.27;59.44;100218.66;10454082;28;20497;-61
2024/04/04 12:19:44;;;;;;;2.28;1.15;;;;;;;17.31;58.82;100204.38;10454126;28;20294;-61
2024/04/04 12:24:44;;;;;;;3.23;0.70;;;;;;;17.32;58.64;100222.06;10453666;28;20044;-61
2024/04/04 12:29:44;;;;;;;3.60;1.37;;;;;;;17.27;59.42;100227.50;10453952;28;20295;-61
2024/04/04 12:34:45;;;;;;;1.10;0.50;;;;;;;17.29;59.89;100219.19;10453423;28;20322;-60
2024/04/04 12:39:45;;;;;;;4.27;1.10;;;;;;;17.32;59.29;100215.91;10467074;28;20276;-62
2024/04/04 12:44:46;;;;;;;4.20;0.80;;;;;;;17.35;58.48;100231.38;10453198;28;20271;-61
2024/04/04 12:49:46;;;;;;;4.85;1.70;;;;;;;17.37;59.59;100243.38;10452844;28;20291;-61
2024/04/04 12:54:47;;;;;;;3.77;1.10;;;;;;;17.46;58.13;100244.28;10452726;28;20392;-60
2024/04/04 12:59:47;;;;;;;2.63;0.77;;;;;;;17.46;58.14;100248.84;10452306;28;20275;-61
2024/04/04 13:04:47;;;;;;;2.50;0.87;;;;;;;17.50;58.86;100244.47;10444474;28;20049;-60
2024/04/04 13:09:47;;;;;;;4.77;1.23;;;;;;;17.54;57.84;100229.38;10452499;28;20815;-60
2024/04/04 13:14:49;;;;;;;3.17;1.37;;;;;;;17.54;57.47;100230.19;10447762;28;20302;-60
2024/04/04 13:19:49;;;;;;;3.50;1.20;;;;;;;17.55;58.16;100236.31;10446592;28;20271;-62
2024/04/04 13:24:50;;;;;;;3.80;1.13;;;;;;;17.62;58.07;100235.91;10447510;28;20029;-60
2024/04/04 13:29:50;;;;;;;7.40;1.40;;;;;;;17.65;57.94;100254.09;10450806;28;20771;-60
2024/04/04 13:34:51;;;;;;;3.17;1.17;;;;;;;17.55;58.58;100260.44;10451201;28;20317;-59
2024/04/04 13:39:52;;;;;;;8.50;1.70;;;;;;;17.47;58.33;100282.59;10449330;28;20856;-61
2024/04/04 13:44:55;;;;;;;2.83;1.17;;;;;;;17.49;58.83;100278.50;10450827;28;20024;-61
2024/04/04 13:49:55;;;;;;;6.65;1.33;;;;;;;17.45;58.94;100263.34;10450934;28;20036;-61
2024/04/04 13:54:58;;;;;;;4.73;1.20;;;;;;;17.35;57.98;100264.31;10450745;28;20358;-60
2024/04/04 14:00:01;;;;;;;4.50;1.27;;;;;;;17.28;59.16;100281.88;10451229;28;20770;-60
2024/04/04 14:05:02;;;;;;;3.38;1.35;;;;;;;17.27;59.71;100281.09;10449885;28;20036;-61
2024/04/04 14:10:02;;;;;;;5.85;1.60;;;;;;;17.31;58.88;100294.69;10450495;28;20527;-60
2024/04/04 14:15:03;;;;;;;7.32;1.80;;;;;;;17.24;59.75;100303.91;10449552;28;20048;-61
2024/04/04 14:20:04;;;;;;;7.40;1.88;;;;;;;17.30;58.88;100295.78;10450333;28;20614;-61
2024/04/04 14:25:04;;;;;;;8.50;2.63;;;;;;;17.31;59.21;100300.06;10449690;28;20029;-61
2024/04/04 14:30:07;;;;;;;4.93;1.52;;;;;;;17.25;58.71;100300.13;10431801;28;20524;-62
2024/04/04 14:35:07;;;;;;;7.43;1.98;;;;;;;17.20;58.44;100310.16;10447564;28;20025;-61
2024/04/04 14:40:08;;;;;;;4.40;1.30;;;;;;;17.22;58.58;100330.22;10448935;28;20499;-60
2024/04/04 14:45:11;;;;;;;5.75;1.80;;;;;;;17.30;58.55;100330.63;10448121;28;20028;-61
2024/04/04 14:50:11;;;;;;;7.05;1.95;;;;;;;17.29;59.11;100339.75;10448591;28;20036;-61
2024/04/04 14:55:12;;;;;;;4.85;1.58;;;;;;;17.25;58.16;100340.34;10430700;28;20064;-61
2024/04/04 15:00:14;;;;;;;6.97;2.28;;;;;;;17.20;58.80;100353.84;10448386;28;20024;-61
2024/04/04 15:05:15;;;;;;;4.95;2.03;;;;;;;17.20;58.28;100369.13;10448516;28;20087;-61
2024/04/04 15:10:15;;;;;;;4.95;2.35;;;;;;;17.27;59.28;100352.63;10448680;28;20040;-60
2024/04/04 15:15:16;;;;;;;5.75;1.58;;;;;;;17.33;59.50;100368.34;10447214;28;20492;-60
2024/04/04 15:20:16;;;;;;;7.13;2.03;;;;;;;17.38;59.24;100378.16;10448384;28;20056;-60
2024/04/04 15:25:17;;;;;;;7.27;2.23;;;;;;;17.39;58.46;100391.25;10447990;28;20128;-60
2024/04/04 15:30:17;;;;;;;5.38;2.00;;;;;;;17.42;58.16;100396.06;10455480;28;20869;-61
2024/04/04 15:35:19;;;;;;;3.75;1.75;;;;;;;17.41;58.48;100396.34;10455279;28;20024;-63
2024/04/04 15:40:19;;;;;;;5.30;1.95;;;;;;;17.42;58.16;100381.88;10456131;28;20539;-62
2024/04/04 15:45:20;;;;;;;11.33;2.50;;;;;;;17.36;59.09;100399.09;10455821;28;20040;-60
2024/04/04 15:50:20;;;;;;;18.95;2.90;;;;;;;17.35;60.05;100405.56;10463742;28;20781;-60
2024/04/04 15:55:21;;;;;;;8.80;2.97;;;;;;;17.34;59.57;100401.28;10465989;28;20033;-60
2024/04/04 16:00:21;;;;;;;8.25;2.90;;;;;;;17.32;58.78;100422.22;10457424;28;20288;-60
2024/04/04 16:05:23;;;;;;;9.65;3.67;;;;;;;17.29;59.53;100431.66;10443944;28;20044;-60
2024/04/04 16:10:23;;;;;;;13.10;4.10;;;;;;;17.32;59.47;100439.09;10454324;28;20037;-60
2024/04/04 16:15:24;;;;;;;13.43;4.00;;;;;;;17.29;59.42;100428.97;10453580;28;20048;-61
2024/04/04 16:20:24;;;;;;;12.93;3.00;;;;;;;17.27;58.37;100435.69;10454151;28;20104;-60
2024/04/04 16:25:25;;;;;;;10.33;3.80;;;;;;;17.37;63.41;100449.72;10470061;28;20025;-62
2024/04/04 16:30:25;;;;;;;9.00;3.70;;;;;;;17.50;62.30;100451.66;10453532;28;20300;-62
2024/04/04 16:35:25;;;;;;;10.00;4.07;;;;;;;17.68;61.44;100478.72;10451065;28;20446;-62
2024/04/04 16:40:26;;;;;;;18.63;4.93;;;;;;;17.70;61.51;100469.31;10452803;28;20372;-63
2024/04/04 16:45:26;;;;;;;20.50;5.03;;;;;;;17.64;61.75;100481.19;10435500;28;20704;-61
2024/04/04 16:50:30;;;;;;;17.33;3.87;;;;;;;17.65;60.61;100487.34;10453397;28;20290;-62
2024/04/04 16:55:30;;;;;;;18.45;4.30;;;;;;;17.67;60.76;100501.25;10452902;28;20020;-61
2024/04/04 17:00:30;;;;;;;19.58;5.70;;;;;;;17.66;59.94;100521.13;10435446;28;20074;-63
2024/04/04 17:05:31;;;;;;;26.00;5.43;;;;;;;17.49;61.75;100514.38;10434417;28;20037;-62
2024/04/04 17:10:31;;;;;;;18.27;5.43;;;;;;;17.42;60.76;100531.97;10452405;28;20374;-61
2024/04/04 17:15:31;;;;;;;18.42;4.63;;;;;;;17.37;61.60;100530.13;10452019;28;20295;-61
2024/04/04 17:20:36;;;;;;;12.77;3.97;;;;;;;17.34;61.75;100540.66;10436758;28;20029;-61
2024/04/04 17:25:36;;;;;;;13.00;4.15;;;;;;;17.31;60.98;100551.94;10433697;28;20051;-62
2024/04/04 17:30:37;;;;;;;12.83;3.37;;;;;;;17.30;61.07;100558.41;10451833;28;20099;-61
2024/04/04 17:35:37;;;;;;;12.20;3.22;;;;;;;17.30;61.46;100569.13;10433348;28;20917;-61
2024/04/04 17:40:37;;;;;;;18.47;4.87;;;;;;;17.27;60.44;100567.00;10451392;28;20416;-62
2024/04/04 17:45:38;;;;;;;10.47;4.57;;;;;;;17.26;59.96;100579.59;10450105;28;20353;-61
2024/04/04 17:50:38;;;;;;;12.93;3.25;;;;;;;17.24;59.95;100584.47;10432331;28;20692;-61
2024/04/04 17:55:40;;;;;;;10.02;3.47;;;;;;;17.23;60.78;100590.91;10449650;28;20392;-62
2024/04/04 18:00:40;;;;;;;11.88;3.72;;;;;;;17.22;60.62;100608.88;10450563;28;20059;-61
2024/04/04 18:05:40;;;;;;;13.57;3.70;;;;;;;17.20;59.74;100616.41;10450337;28;20044;-61
2024/04/04 18:10:42;;;;;;;10.73;3.43;;;;;;;17.19;60.00;100633.56;10432315;28;20881;-61
2024/04/04 18:15:42;;;;;;;16.55;3.65;;;;;;;17.22;60.15;100632.97;10449686;28;20982;-61
2024/04/04 18:20:43;;;;;;;11.93;3.55;;;;;;;17.22;60.15;100632.97;10450160;28;20020;-61
2024/04/04 18:25:43;;;;;;;11.65;3.88;;;;;;;17.22;60.27;100643.69;10450347;28;20037;-61
2024/04/04 18:30:43;;;;;;;10.63;3.20;;;;;;;17.23;59.63;100653.34;10449231;28;20025;-61
2024/04/04 18:35:44;;;;;;;12.10;2.97;;;;;;;17.24;59.52;100654.91;10449520;28;20036;-61
2024/04/04 18:40:44;;;;;;;11.55;4.20;;;;;;;17.26;60.17;100654.63;10449308;28;20028;-61
2024/04/04 18:45:45;;;;;;;10.98;3.40;;;;;;;17.24;59.33;100665.66;10448711;28;20028;-61
2024/04/04 18:50:45;;;;;;;13.10;3.70;;;;;;;17.24;59.10;100660.28;10429102;28;20017;-62
2024/04/04 18:55:45;;;;;;;10.23;3.30;;;;;;;17.25;59.16;100658.41;10434087;28;20283;-61
2024/04/04 19:00:46;;;;;;;7.27;2.50;;;;;;;17.33;59.64;100665.00;10451166;28;20039;-61
2024/04/04 19:05:47;;;;;;;11.33;3.90;;;;;;;17.33;58.84;100668.50;10456788;28;20274;-61
2024/04/04 19:10:55;;;;;;;10.70;3.40;;;;;;;17.34;58.66;100671.97;10456307;28;20382;-61
2024/04/04 19:16:00;;;;;;;9.77;2.67;;;;;;;17.36;58.36;100677.84;10445467;28;20573;-61
2024/04/04 19:21:06;;;;;;;10.10;3.50;;;;;;;17.31;59.12;100692.09;10455244;28;20024;-61
2024/04/04 19:26:07;;;;;;;11.27;3.50;;;;;;;17.39;59.44;100693.31;10442169;28;20096;-61
2024/04/04 19:31:10;;;;;;;7.97;3.00;;;;;;;17.43;58.37;100708.56;10455197;28;20542;-61
2024/04/04 19:36:10;;;;;;;8.80;3.60;;;;;;;17.44;59.07;100702.13;10455285;28;20037;-61
2024/04/04 19:41:11;;;;;;;10.38;3.10;;;;;;;17.36;59.14;100710.78;10436496;28;20029;-60
2024/04/04 19:46:12;;;;;;;6.45;3.88;;;;;;;17.34;58.27;100710.28;10446984;28;20384;-60
2024/04/04 19:51:12;;;;;;;10.60;3.50;;;;;;;17.30;58.47;100711.94;10457388;28;20045;-60
2024/04/04 19:56:12;;;;;;;7.77;2.90;;;;;;;17.30;58.73;100714.63;10437278;28;21011;-60
2024/04/04 20:01:13;;;;;;;9.30;2.50;;;;;;;17.29;59.15;100714.91;10457158;28;20326;-60
2024/04/04 20:06:13;;;;;;;10.80;4.45;;;;;;;17.31;59.01;100715.44;10420670;28;20375;-60
2024/04/04 20:11:13;;;;;;;8.57;3.20;;;;;;;17.30;59.28;100727.22;10453610;28;20085;-60
2024/04/04 20:16:14;;;;;;;6.68;3.25;;;;;;;17.31;58.61;100729.63;10412433;28;20088;-60
2024/04/04 20:21:15;;;;;;;6.50;2.65;;;;;;;17.29;58.73;100729.13;10411888;28;20026;-60
2024/04/04 20:26:15;;;;;;;7.95;2.17;;;;;;;17.30;59.27;100738.75;10413305;28;20037;-60
2024/04/04 20:31:16;;;;;;;5.80;2.72;;;;;;;17.32;59.72;100727.75;10407201;28;20098;-61
2024/04/04 20:36:16;;;;;;;7.60;4.17;;;;;;;17.32;59.00;100733.09;10371641;28;20088;-60
2024/04/04 20:41:16;;;;;;;7.87;3.17;;;;;;;17.32;58.85;100735.78;10369341;28;20779;-61
2024/04/04 20:46:17;;;;;;;8.77;2.92;;;;;;;17.35;59.28;100736.00;10353621;28;20289;-60
2024/04/04 20:51:17;;;;;;;15.17;3.87;;;;;;;17.33;58.50;100746.22;10371058;28;20030;-60
2024/04/04 20:56:17;;;;;;;12.15;2.75;;;;;;;17.31;58.85;100740.34;10374174;28;20802;-60
2024/04/04 21:01:18;;;;;;;10.20;2.87;;;;;;;17.31;58.81;100750.25;10406046;28;20033;-60
2024/04/04 21:06:19;;;;;;;8.52;2.83;;;;;;;17.30;58.67;100757.50;10365436;28;20347;-60
2024/04/04 21:11:21;;;;;;;10.43;2.77;;;;;;;17.29;59.61;100773.88;10369928;28;20056;-60
2024/04/04 21:16:23;;;;;;;5.95;2.90;;;;;;;17.29;58.51;100779.22;10370027;28;20307;-60
2024/04/04 21:21:23;;;;;;;7.55;2.85;;;;;;;17.28;58.74;100764.22;10370294;28;20085;-60
2024/04/04 21:26:23;;;;;;;11.23;3.25;;;;;;;17.28;58.33;100767.69;10352457;28;20065;-60
2024/04/04 21:31:24;;;;;;;5.90;2.17;;;;;;;17.29;59.61;100771.19;10369268;28;20041;-60
2024/04/04 21:36:24;;;;;;;7.45;2.50;;;;;;;17.27;58.65;100766.09;10351777;28;20858;-61
2024/04/04 21:41:25;;;;;;;6.53;2.00;;;;;;;17.24;59.31;100772.81;10365285;28;20477;-61
2024/04/04 21:46:25;;;;;;;7.88;2.70;;;;;;;17.24;58.99;100764.00;10351382;28;20296;-60
2024/04/04 21:51:25;;;;;;;6.40;2.63;;;;;;;17.24;58.21;100764.00;10368643;28;20100;-61
2024/04/04 21:56:27;;;;;;;5.03;1.83;;;;;;;17.26;59.41;100761.81;10368921;28;20335;-60
2024/04/04 22:01:27;;;;;;;7.50;2.97;;;;;;;17.27;58.54;100773.34;10368454;28;20826;-60
2024/04/04 22:06:28;;;;;;;7.17;3.03;;;;;;;17.28;58.30;100772.25;10368562;28;20030;-60
2024/04/04 22:11:28;;;;;;;7.45;2.15;;;;;;;17.27;58.10;100778.69;10367675;28;20299;-60
2024/04/04 22:16:28;;;;;;;7.90;2.70;;;;;;;17.27;58.73;100766.09;10443439;28;20175;-60
2024/04/04 22:21:29;;;;;;;4.65;2.25;;;;;;;17.31;57.93;100775.19;10431983;28;20427;-60
2024/04/04 22:26:29;;;;;;;7.20;2.72;;;;;;;17.34;57.81;100771.91;10450257;28;20028;-60
2024/04/04 22:31:30;;;;;;;6.93;2.27;;;;;;;17.33;58.52;100777.56;10449524;28;20029;-60
2024/04/04 22:36:30;;;;;;;6.43;2.38;;;;;;;17.32;57.70;100781.34;10458195;28;20711;-60
2024/04/04 22:41:30;;;;;;;7.50;2.10;;;;;;;17.30;57.65;100778.94;10463115;28;20025;-61
2024/04/04 22:46:31;;;;;;;9.10;2.57;;;;;;;17.29;58.03;100789.97;10463365;28;20279;-61
2024/04/04 22:51:33;;;;;;;5.72;2.10;;;;;;;17.30;57.31;100788.88;10445225;28;20307;-60
2024/04/04 22:56:33;;;;;;;6.57;2.28;;;;;;;17.27;58.46;100790.22;10463239;28;20086;-61
2024/04/04 23:01:34;;;;;;;6.27;2.27;;;;;;;17.27;59.12;100790.22;10463099;28;20075;-60